createdAt,value
2023-01-19T00:01:26.998Z,9.82
2023-01-19T00:03:53.327Z,10.60
2023-01-19T00:06:19.779Z,10.25
2023-01-19T00:08:48.520Z,10.40
2023-01-19T00:11:14.848Z,9.40
2023-01-19T00:13:41.222Z,10.13
2023-01-19T00:16:07.624Z,10.23
2023-01-19T00:18:33.983Z,9.65
2023-01-19T00:21:00.359Z,9.98
2023-01-19T00:23:26.697Z,10.50
2023-01-19T00:25:53.082Z,8.50
2023-01-19T00:28:19.898Z,9.98
2023-01-19T00:33:15.521Z,8.93
2023-01-19T00:35:44.937Z,8.60
2023-01-19T00:38:12.136Z,10.82
2023-01-19T00:40:38.676Z,10.40
2023-01-19T00:43:05.119Z,10.30
2023-01-19T00:45:32.905Z,10.93
2023-01-19T00:47:59.346Z,11.55
2023-01-19T00:50:29.649Z,9.25
2023-01-19T00:52:56.571Z,10.43
2023-01-19T00:57:49.292Z,11.30
2023-01-19T01:00:17.115Z,9.68
2023-01-19T01:02:44.346Z,10.77
2023-01-19T01:05:11.640Z,8.60
2023-01-19T01:07:40.651Z,10.45
2023-01-19T01:10:11.441Z,9.63
2023-01-19T01:12:37.914Z,10.10
2023-01-19T01:15:05.054Z,10.60
2023-01-19T01:17:31.710Z,10.88
2023-01-19T01:19:58.089Z,12.55
2023-01-19T01:22:24.551Z,10.15
2023-01-19T01:24:51.042Z,9.00
2023-01-19T01:27:17.394Z,8.90
2023-01-19T01:29:46.514Z,9.65
2023-01-19T01:32:14.111Z,8.52
2023-01-19T01:34:40.549Z,8.63
2023-01-19T01:37:08.300Z,7.03
2023-01-19T01:39:37.873Z,7.72
2023-01-19T01:42:13.972Z,6.55
2023-01-19T01:44:50.659Z,6.90
2023-01-19T01:49:43.974Z,6.22
2023-01-19T01:52:11.313Z,5.78
2023-01-19T01:54:37.678Z,7.10
2023-01-19T01:57:06.065Z,6.95
2023-01-19T01:59:39.075Z,6.07
2023-01-19T02:02:26.255Z,5.45
2023-01-19T02:04:55.694Z,5.07
2023-01-19T02:07:59.855Z,4.70
2023-01-19T02:10:45.185Z,6.00
2023-01-19T02:13:21.380Z,4.35
2023-01-19T02:15:49.797Z,4.70
2023-01-19T02:18:16.587Z,5.25
2023-01-19T02:21:04.681Z,4.28
2023-01-19T02:23:34.044Z,4.80
2023-01-19T02:26:00.795Z,3.92
2023-01-19T02:28:27.864Z,4.03
2023-01-19T02:30:54.244Z,4.13
2023-01-19T02:33:20.630Z,3.05
2023-01-19T02:35:47.735Z,4.32
2023-01-19T02:38:14.896Z,3.63
2023-01-19T02:40:42.600Z,3.72
2023-01-19T02:43:09.180Z,2.83
2023-01-19T02:45:37.591Z,4.38
2023-01-19T02:48:05.402Z,4.45
2023-01-19T02:50:32.232Z,5.07
2023-01-19T02:53:04.698Z,4.30
2023-01-19T02:55:31.644Z,3.63
2023-01-19T03:00:47.852Z,3.58
2023-01-19T03:03:30.638Z,3.15
2023-01-19T03:05:57.007Z,2.55
2023-01-19T03:08:43.251Z,3.22
2023-01-19T03:11:11.289Z,2.60
2023-01-19T03:13:52.593Z,4.30
2023-01-19T03:16:28.782Z,2.78
2023-01-19T03:19:08.683Z,2.88
2023-01-19T03:21:36.532Z,2.30
2023-01-19T03:24:04.381Z,2.08
2023-01-19T03:26:32.495Z,1.88
2023-01-19T03:29:00.397Z,3.13
2023-01-19T03:31:28.711Z,2.47
2023-01-19T03:33:56.262Z,2.25
2023-01-19T03:36:28.620Z,2.50
2023-01-19T03:38:55.807Z,3.25
2023-01-19T03:41:23.187Z,2.83
2023-01-19T03:43:50.633Z,3.88
2023-01-19T03:46:18.716Z,1.83
2023-01-19T03:48:46.109Z,4.10
2023-01-19T03:51:13.380Z,2.70
2023-01-19T03:53:40.179Z,1.40
2023-01-19T03:58:32.844Z,4.93
2023-01-19T04:01:01.749Z,1.40
2023-01-19T04:03:28.533Z,2.55
2023-01-19T04:05:56.537Z,2.22
2023-01-19T04:08:22.935Z,1.23
2023-01-19T04:10:49.325Z,3.60
2023-01-19T04:13:15.654Z,2.88
2023-01-19T04:15:42.041Z,2.47
2023-01-19T04:18:08.628Z,1.85
2023-01-19T04:20:35.052Z,2.85
2023-01-19T04:23:02.068Z,5.30
2023-01-19T04:25:28.884Z,3.97
2023-01-19T04:27:57.831Z,1.48
2023-01-19T04:30:24.739Z,1.63
2023-01-19T04:32:51.816Z,1.88
2023-01-19T04:35:18.142Z,2.75
2023-01-19T04:37:45.017Z,1.13
2023-01-19T04:42:37.546Z,2.15
2023-01-19T04:45:04.040Z,3.30
2023-01-19T04:47:30.898Z,1.58
2023-01-19T04:52:23.621Z,1.92
2023-01-19T04:54:49.916Z,2.55
2023-01-19T04:57:20.607Z,2.15
2023-01-19T04:59:46.968Z,1.42
2023-01-19T05:02:13.393Z,1.17
2023-01-19T05:04:39.757Z,1.17
2023-01-19T05:07:06.103Z,1.83
2023-01-19T05:09:32.550Z,3.38
2023-01-19T05:11:58.865Z,0.68
2023-01-19T05:14:25.266Z,1.80
2023-01-19T05:16:51.620Z,1.83
2023-01-19T05:19:18.012Z,2.00
2023-01-19T05:21:44.317Z,2.13
2023-01-19T05:24:10.690Z,1.77
2023-01-19T05:26:37.375Z,1.85
2023-01-19T05:29:03.772Z,1.17
2023-01-19T05:31:31.917Z,1.58
2023-01-19T05:34:00.125Z,3.72
2023-01-19T05:36:27.092Z,2.85
2023-01-19T05:41:19.823Z,4.40
2023-01-19T05:43:46.164Z,4.32
2023-01-19T05:46:12.792Z,2.75
2023-01-19T05:48:40.010Z,2.17
2023-01-19T05:51:06.572Z,2.25
2023-01-19T05:53:33.010Z,4.60
2023-01-19T05:56:09.226Z,3.13
2023-01-19T05:58:41.829Z,5.40
2023-01-19T06:01:09.454Z,5.43
2023-01-19T06:03:36.899Z,3.55
2023-01-19T06:06:03.414Z,5.50
2023-01-19T06:08:30.185Z,4.03
2023-01-19T06:10:56.671Z,4.57
2023-01-19T06:13:22.974Z,2.88
2023-01-19T06:15:50.364Z,5.32
2023-01-19T06:18:16.893Z,6.13
2023-01-19T06:20:43.935Z,3.92
2023-01-19T06:23:10.858Z,3.92
2023-01-19T06:25:37.257Z,7.75
2023-01-19T06:28:03.616Z,2.80
2023-01-19T06:30:29.957Z,1.88
2023-01-19T06:32:56.303Z,3.65
2023-01-19T06:35:22.609Z,4.43
2023-01-19T06:37:49.203Z,4.03
2023-01-19T06:40:15.504Z,3.35
2023-01-19T06:42:43.068Z,3.45
2023-01-19T06:45:10.020Z,2.33
2023-01-19T06:50:03.383Z,3.47
2023-01-19T06:52:42.075Z,3.70
2023-01-19T06:55:10.763Z,6.28
2023-01-19T06:57:40.463Z,4.28
2023-01-19T07:00:08.801Z,2.63
2023-01-19T07:02:35.635Z,4.05
2023-01-19T07:05:02.061Z,3.10
2023-01-19T07:07:28.465Z,4.45
2023-01-19T07:09:55.039Z,4.00
2023-01-19T07:12:22.129Z,3.17
2023-01-19T07:14:49.453Z,3.25
2023-01-19T07:17:15.960Z,2.75
2023-01-19T07:19:42.981Z,3.38
2023-01-19T07:22:09.297Z,2.63
2023-01-19T07:24:37.882Z,2.90
2023-01-19T07:27:05.341Z,2.80
2023-01-19T07:29:31.760Z,3.58
2023-01-19T07:31:58.291Z,2.47
2023-01-19T07:34:24.640Z,3.65
2023-01-19T07:36:50.986Z,3.33
2023-01-19T07:39:17.393Z,5.40
2023-01-19T07:41:43.734Z,1.95
2023-01-19T07:44:10.058Z,5.05
2023-01-19T07:46:36.403Z,3.35
2023-01-19T07:49:02.822Z,4.70
2023-01-19T07:51:29.155Z,1.98
2023-01-19T07:53:55.463Z,5.10
2023-01-19T07:56:22.417Z,3.50
2023-01-19T08:01:16.762Z,3.65
2023-01-19T08:03:43.286Z,4.75
2023-01-19T08:06:19.174Z,4.72
2023-01-19T08:08:45.556Z,3.95
2023-01-19T08:11:11.905Z,5.00
2023-01-19T08:13:38.261Z,2.97
2023-01-19T08:16:04.961Z,7.72
2023-01-19T08:18:31.345Z,3.40
2023-01-19T08:21:00.932Z,2.30
2023-01-19T08:23:28.030Z,2.47
2023-01-19T08:25:54.727Z,5.40
2023-01-19T08:28:21.576Z,2.97
2023-01-19T08:30:54.507Z,5.70
2023-01-19T08:33:21.962Z,6.57
2023-01-19T08:35:50.030Z,8.18
2023-01-19T08:38:19.995Z,3.00
2023-01-19T08:40:46.385Z,3.17
2023-01-19T08:43:13.964Z,4.15
2023-01-19T08:45:42.429Z,3.88
2023-01-19T08:48:09.902Z,6.80
2023-01-19T08:50:36.300Z,6.20
2023-01-19T08:53:03.826Z,4.97
2023-01-19T08:55:30.645Z,3.28
2023-01-19T08:57:58.027Z,4.00
2023-01-19T09:00:27.536Z,6.03
2023-01-19T09:02:54.386Z,6.10
2023-01-19T09:05:20.931Z,3.40
2023-01-19T09:07:48.198Z,8.32
2023-01-19T09:10:15.441Z,6.45
2023-01-19T09:12:41.945Z,6.20
2023-01-19T09:15:10.621Z,8.05
2023-01-19T09:17:37.077Z,6.75
2023-01-19T09:20:04.397Z,5.47
2023-01-19T09:22:30.709Z,5.13
2023-01-19T09:24:57.076Z,5.88
2023-01-19T09:27:23.616Z,6.43
2023-01-19T09:29:53.915Z,3.78
2023-01-19T09:32:21.283Z,5.60
2023-01-19T09:34:47.744Z,5.03
2023-01-19T09:37:16.091Z,3.17
2023-01-19T09:39:42.497Z,6.75
2023-01-19T09:42:11.865Z,4.38
2023-01-19T09:44:39.118Z,5.57
2023-01-19T09:47:13.623Z,8.65
2023-01-19T09:49:41.877Z,4.63
2023-01-19T09:52:10.664Z,5.40
2023-01-19T09:54:52.757Z,4.00
2023-01-19T09:57:20.548Z,3.92
2023-01-19T09:59:49.342Z,5.25
2023-01-19T10:02:30.384Z,6.07
2023-01-19T10:05:00.627Z,7.63
2023-01-19T10:07:30.067Z,4.25
2023-01-19T10:10:15.091Z,5.18
2023-01-19T10:12:44.534Z,4.10
2023-01-19T10:15:20.130Z,7.35
2023-01-19T10:18:05.354Z,5.60
2023-01-19T10:20:34.907Z,5.57
2023-01-19T10:23:02.164Z,2.50
2023-01-19T10:25:29.243Z,6.78
2023-01-19T10:30:24.103Z,4.03
2023-01-19T10:32:51.156Z,4.00
2023-01-19T10:35:26.138Z,8.05
2023-01-19T10:37:56.005Z,9.10
2023-01-19T10:40:29.069Z,4.25
2023-01-19T10:42:56.272Z,5.05
2023-01-19T10:45:26.957Z,5.55
2023-01-19T10:47:54.032Z,4.65
2023-01-19T10:50:28.421Z,5.43
2023-01-19T10:52:56.092Z,4.93
2023-01-19T10:55:37.997Z,5.93
2023-01-19T10:58:05.235Z,4.00
2023-01-19T11:00:33.179Z,4.28
2023-01-19T11:03:00.394Z,3.03
2023-01-19T11:05:28.382Z,4.82
2023-01-19T11:07:55.234Z,6.53
2023-01-19T11:13:03.677Z,6.38
2023-01-19T11:15:50.635Z,5.18
2023-01-19T11:18:27.006Z,6.15
2023-01-19T11:20:55.020Z,5.78
2023-01-19T11:23:32.486Z,6.13
2023-01-19T11:26:01.355Z,10.57
2023-01-19T11:28:44.780Z,7.75
2023-01-19T11:31:11.508Z,5.43
2023-01-19T11:33:42.511Z,5.88
2023-01-19T11:36:16.761Z,4.85
2023-01-19T11:38:44.271Z,7.75
2023-01-19T11:41:26.631Z,7.82
2023-01-19T11:43:54.489Z,4.80
2023-01-19T11:46:21.493Z,5.00
2023-01-19T11:49:17.887Z,6.75
2023-01-19T11:52:04.467Z,5.05
2023-01-19T11:54:36.033Z,4.70
2023-01-19T11:57:06.440Z,4.72
2023-01-19T11:59:33.204Z,8.15
2023-01-19T12:02:00.816Z,5.47
2023-01-19T12:04:33.403Z,5.90
2023-01-19T12:07:03.099Z,6.40
2023-01-19T12:09:38.954Z,5.63
2023-01-19T12:12:11.627Z,4.18
2023-01-19T12:14:46.164Z,4.28
2023-01-19T12:17:16.475Z,7.22
2023-01-19T12:19:45.346Z,4.38
2023-01-19T12:22:16.492Z,3.72
2023-01-19T12:24:53.109Z,5.30
2023-01-19T12:27:26.731Z,3.80
2023-01-19T12:29:54.623Z,2.65
2023-01-19T12:32:32.127Z,3.13
2023-01-19T12:34:58.587Z,5.30
2023-01-19T12:37:31.098Z,3.40
2023-01-19T12:40:02.376Z,4.68
2023-01-19T12:42:29.246Z,5.03
2023-01-19T12:45:13.537Z,3.28
2023-01-19T12:47:40.043Z,4.15
2023-01-19T12:50:19.229Z,2.85
2023-01-19T12:52:51.615Z,3.95
2023-01-19T12:55:18.128Z,3.95
2023-01-19T12:57:50.653Z,2.25
2023-01-19T13:00:20.965Z,4.80
2023-01-19T13:02:51.273Z,1.98
2023-01-19T13:05:17.674Z,3.42
2023-01-19T13:08:02.329Z,2.20
2023-01-19T13:10:49.710Z,1.98
2023-01-19T13:13:20.591Z,3.50
2023-01-19T13:15:46.956Z,3.17
2023-01-19T13:18:27.771Z,1.92
2023-01-19T13:21:00.103Z,3.13
2023-01-19T13:23:28.786Z,2.75
2023-01-19T13:26:05.911Z,2.90
2023-01-19T13:28:37.646Z,3.38
2023-01-19T13:31:04.995Z,5.20
2023-01-19T13:33:38.100Z,2.15
2023-01-19T13:36:13.651Z,3.65
2023-01-19T13:38:41.527Z,6.50
2023-01-19T13:41:08.040Z,3.33
2023-01-19T13:43:36.567Z,4.25
2023-01-19T13:46:04.120Z,3.70
2023-01-19T13:48:31.246Z,4.85
2023-01-19T13:51:02.205Z,5.50
2023-01-19T13:53:29.471Z,4.05
2023-01-19T13:56:12.007Z,3.20
2023-01-19T13:58:38.390Z,4.30
2023-01-19T14:01:04.803Z,3.38
2023-01-19T14:03:31.229Z,2.78
2023-01-19T14:06:01.130Z,4.05
2023-01-19T14:08:27.786Z,3.00
2023-01-19T14:10:59.785Z,3.20
2023-01-19T14:13:29.787Z,5.45
2023-01-19T14:15:59.298Z,3.88
2023-01-19T14:18:32.856Z,3.13
2023-01-19T14:21:04.601Z,3.40
2023-01-19T14:23:42.992Z,2.90
2023-01-19T14:26:28.260Z,2.92
2023-01-19T14:28:54.703Z,4.55
2023-01-19T14:31:27.485Z,9.15
2023-01-19T14:33:54.932Z,2.55
2023-01-19T14:36:21.278Z,5.15
2023-01-19T14:38:48.509Z,3.95
2023-01-19T14:41:23.831Z,3.63
2023-01-19T14:43:50.308Z,4.57
2023-01-19T14:46:18.141Z,3.22
2023-01-19T14:48:48.406Z,5.00
2023-01-19T14:51:22.744Z,3.47
2023-01-19T14:53:51.436Z,3.65
2023-01-19T14:56:25.331Z,2.88
2023-01-19T14:58:51.711Z,1.92
2023-01-19T15:01:18.157Z,2.47
2023-01-19T15:03:45.786Z,3.85
2023-01-19T15:06:14.409Z,2.85
2023-01-19T15:08:40.803Z,2.33
2023-01-19T15:11:11.612Z,3.17
2023-01-19T15:13:39.233Z,3.67
2023-01-19T15:16:06.652Z,4.32
2023-01-19T15:18:33.009Z,4.95
2023-01-19T15:21:02.828Z,1.95
2023-01-19T15:23:32.548Z,2.95
2023-01-19T15:26:02.661Z,2.22
2023-01-19T15:28:29.453Z,13.77
2023-01-19T15:33:23.116Z,5.38
2023-01-19T15:35:49.756Z,7.40
2023-01-19T15:38:16.429Z,8.07
2023-01-19T15:40:42.835Z,4.93
2023-01-19T15:43:12.072Z,7.07
2023-01-19T15:45:41.418Z,7.40
2023-01-19T15:48:09.069Z,6.30
2023-01-19T15:50:39.527Z,5.20
2023-01-19T15:53:06.063Z,4.30
2023-01-19T15:55:32.449Z,8.13
2023-01-19T15:58:01.567Z,6.18
2023-01-19T16:00:31.344Z,2.38
2023-01-19T16:02:58.127Z,3.55
2023-01-19T16:05:37.472Z,4.13
2023-01-19T16:08:08.584Z,4.20
2023-01-19T16:10:35.367Z,4.32
2023-01-19T16:13:01.719Z,1.70
2023-01-19T16:15:28.079Z,3.38
2023-01-19T16:17:54.395Z,3.05
2023-01-19T16:20:20.826Z,3.05
2023-01-19T16:22:47.295Z,2.95
2023-01-19T16:25:14.584Z,2.90
2023-01-19T16:27:42.652Z,2.42
2023-01-19T16:30:11.068Z,1.98
2023-01-19T16:32:38.369Z,1.98
2023-01-19T16:35:04.977Z,3.90
2023-01-19T16:37:31.301Z,2.72
2023-01-19T16:39:58.161Z,1.75
2023-01-19T16:42:24.830Z,5.05
2023-01-19T16:44:51.906Z,2.35
2023-01-19T16:47:18.334Z,3.40
2023-01-19T16:49:44.622Z,2.17
2023-01-19T16:52:11.026Z,3.05
2023-01-19T16:54:39.363Z,3.13
2023-01-19T16:57:05.774Z,1.90
2023-01-19T16:59:32.242Z,2.03
2023-01-19T17:01:58.682Z,2.30
2023-01-19T17:04:25.142Z,2.17
2023-01-19T17:06:51.521Z,4.13
2023-01-19T17:09:18.067Z,3.15
2023-01-19T17:11:44.659Z,4.00
2023-01-19T17:14:15.932Z,3.50
2023-01-19T17:16:43.132Z,2.88
2023-01-19T17:19:12.681Z,4.50
2023-01-19T17:21:39.022Z,3.67
2023-01-19T17:24:05.464Z,3.67
2023-01-19T17:26:31.930Z,5.65
2023-01-19T17:29:01.829Z,8.15
2023-01-19T17:31:28.940Z,6.97
2023-01-19T17:33:55.428Z,5.93
2023-01-19T17:36:22.967Z,6.95
2023-01-19T17:38:50.922Z,7.28
2023-01-19T17:41:20.280Z,7.30
2023-01-19T17:43:46.745Z,10.23
2023-01-19T17:46:13.233Z,9.20
2023-01-19T17:48:39.708Z,7.88
2023-01-19T17:51:07.007Z,8.00
2023-01-19T17:53:34.097Z,9.10
2023-01-19T17:56:04.320Z,9.48
2023-01-19T17:58:31.497Z,8.98
2023-01-19T18:01:00.089Z,8.43
2023-01-19T18:03:26.429Z,9.07
2023-01-19T18:05:53.840Z,10.27
2023-01-19T18:08:20.243Z,9.98
2023-01-19T18:10:54.151Z,9.27
2023-01-19T18:13:20.466Z,10.95
2023-01-19T18:15:46.770Z,9.82
2023-01-19T18:18:13.111Z,8.43
2023-01-19T18:20:40.037Z,10.00
2023-01-19T18:23:06.561Z,10.02
2023-01-19T18:25:32.924Z,11.75
2023-01-19T18:27:59.371Z,11.88
2023-01-19T18:30:25.782Z,12.65
2023-01-19T18:32:52.393Z,10.68
2023-01-19T18:35:18.970Z,13.60
2023-01-19T18:37:45.335Z,13.23
2023-01-19T18:40:12.249Z,12.40
2023-01-19T18:42:38.715Z,13.73
2023-01-19T18:45:05.442Z,12.88
2023-01-19T18:47:32.803Z,13.00
2023-01-19T18:49:59.876Z,13.88
2023-01-19T18:52:26.510Z,15.65
2023-01-19T18:54:52.935Z,11.75
2023-01-19T18:57:19.518Z,16.23
2023-01-19T18:59:46.384Z,14.25
2023-01-19T19:04:40.282Z,13.77
2023-01-19T19:07:06.619Z,16.63
2023-01-19T19:09:32.974Z,14.98
2023-01-19T19:11:59.357Z,13.65
2023-01-19T19:14:25.758Z,16.85
2023-01-19T19:16:52.086Z,14.52
2023-01-19T19:19:19.005Z,18.40
2023-01-19T19:26:40.023Z,17.65
2023-01-19T19:29:06.395Z,16.70
2023-01-19T19:31:32.733Z,18.42
2023-01-19T19:33:59.212Z,16.08
2023-01-19T19:36:26.930Z,16.08
2023-01-19T19:38:53.235Z,17.25
2023-01-19T19:41:24.503Z,15.50
2023-01-19T19:43:50.832Z,18.40
2023-01-19T19:46:21.199Z,15.40
2023-01-19T19:48:47.995Z,13.98
2023-01-19T19:53:45.361Z,13.60
2023-01-19T19:56:15.120Z,12.50
2023-01-19T19:58:42.136Z,14.85
2023-01-19T20:01:08.550Z,12.40
2023-01-19T20:03:34.911Z,13.38
2023-01-19T20:06:05.491Z,9.57
2023-01-19T20:08:31.847Z,10.57
2023-01-19T20:11:08.930Z,9.02
2023-01-19T20:13:35.919Z,9.05
2023-01-19T20:16:03.930Z,8.85
2023-01-19T20:18:30.711Z,9.73
2023-01-19T20:23:23.319Z,8.52
2023-01-19T20:25:49.683Z,8.30
2023-01-19T20:28:16.006Z,8.20
2023-01-19T20:30:42.422Z,7.47
2023-01-19T20:33:08.718Z,8.25
2023-01-19T20:35:35.070Z,8.23
2023-01-19T20:38:01.414Z,7.60
2023-01-19T20:40:27.760Z,7.88
2023-01-19T20:42:54.128Z,7.38
2023-01-19T20:45:20.612Z,5.57
2023-01-19T20:47:46.926Z,7.30
2023-01-19T20:50:13.467Z,6.90
2023-01-19T20:52:39.857Z,6.78
2023-01-19T20:55:08.707Z,6.93
2023-01-19T20:57:35.068Z,6.75
2023-01-19T21:00:01.452Z,5.95
2023-01-19T21:02:28.666Z,6.15
2023-01-19T21:04:55.028Z,5.95
2023-01-19T21:07:21.422Z,5.70
2023-01-19T21:09:47.768Z,6.25
2023-01-19T21:12:15.965Z,5.65
2023-01-19T21:14:43.790Z,5.55
2023-01-19T21:17:10.176Z,5.47
2023-01-19T21:19:36.561Z,5.53
2023-01-19T21:22:02.959Z,5.22
2023-01-19T21:24:29.434Z,7.05
2023-01-19T21:26:55.778Z,5.00
2023-01-19T21:29:22.144Z,4.70
2023-01-19T21:31:48.587Z,5.10
2023-01-19T21:34:14.942Z,4.95
2023-01-19T21:36:41.332Z,4.70
2023-01-19T21:39:08.182Z,5.72
2023-01-19T21:44:02.356Z,4.88
2023-01-19T21:46:29.536Z,5.18
2023-01-19T21:49:00.213Z,5.13
2023-01-19T21:51:27.107Z,5.00
2023-01-19T21:56:23.238Z,4.60
2023-01-19T21:58:50.215Z,4.43
2023-01-19T22:01:18.008Z,4.20
2023-01-19T22:03:44.733Z,5.20
2023-01-19T22:06:12.185Z,4.72
2023-01-19T22:08:38.882Z,4.75
2023-01-19T22:11:06.369Z,4.50
2023-01-19T22:13:32.988Z,4.45
2023-01-19T22:16:03.134Z,4.38
2023-01-19T22:18:29.505Z,4.35
2023-01-19T22:20:55.864Z,4.35
2023-01-19T22:23:22.252Z,4.60
2023-01-19T22:25:48.564Z,4.70
2023-01-19T22:28:14.878Z,5.28
2023-01-19T22:30:41.312Z,4.75
2023-01-19T22:33:07.737Z,5.28
2023-01-19T22:35:34.048Z,5.82
2023-01-19T22:38:00.663Z,4.80
2023-01-19T22:40:27.294Z,5.75
2023-01-19T22:42:53.704Z,5.25
2023-01-19T22:45:21.706Z,4.45
2023-01-19T22:47:48.119Z,4.85
2023-01-19T22:50:14.571Z,5.70
2023-01-19T22:52:41.445Z,4.80
2023-01-19T22:57:37.367Z,5.07
2023-01-19T23:00:06.639Z,5.32
2023-01-19T23:02:32.927Z,4.82
2023-01-19T23:04:59.384Z,5.13
2023-01-19T23:07:25.777Z,5.47
2023-01-19T23:09:52.156Z,4.55
2023-01-19T23:12:18.526Z,5.18
2023-01-19T23:14:44.878Z,5.15
2023-01-19T23:17:11.176Z,4.32
2023-01-19T23:19:37.507Z,4.93
2023-01-19T23:22:03.871Z,5.28
2023-01-19T23:24:30.469Z,5.95
2023-01-19T23:26:56.830Z,5.63
2023-01-19T23:29:23.393Z,4.50
2023-01-19T23:31:50.104Z,4.70
2023-01-19T23:34:16.869Z,6.13
2023-01-19T23:36:43.292Z,5.47
2023-01-19T23:39:20.147Z,4.90
2023-01-19T23:41:46.845Z,4.95
2023-01-19T23:44:13.371Z,5.03
2023-01-19T23:46:39.857Z,5.10
2023-01-19T23:49:06.335Z,4.93
2023-01-19T23:51:33.328Z,4.22
2023-01-19T23:54:00.177Z,4.65
2023-01-19T23:56:31.604Z,5.15
2023-01-19T23:59:01.928Z,4.80
